createdAt,value
2019-04-30T00:01:07.511Z,10.30
2019-04-30T00:03:37.339Z,10.30
2019-04-30T00:06:07.489Z,10.30
2019-04-30T00:08:39.269Z,10.30
2019-04-30T00:11:10.903Z,10.40
2019-04-30T00:13:40.261Z,10.40
2019-04-30T00:16:09.936Z,10.50
2019-04-30T00:18:43.439Z,10.40
2019-04-30T00:21:15.137Z,10.40
2019-04-30T00:23:42.419Z,10.60
2019-04-30T00:26:12.099Z,10.50
2019-04-30T00:28:46.252Z,10.50
2019-04-30T00:31:17.375Z,10.50
2019-04-30T00:33:44.960Z,10.30
2019-04-30T00:36:17.305Z,10.30
2019-04-30T00:38:46.190Z,10.40
2019-04-30T00:41:15.795Z,10.40
2019-04-30T00:43:49.381Z,10.50
2019-04-30T00:46:24.726Z,10.50
2019-04-30T00:48:48.259Z,10.50
2019-04-30T00:51:21.034Z,10.40
2019-04-30T00:53:51.308Z,10.30
2019-04-30T00:56:24.757Z,10.40
2019-04-30T00:58:51.802Z,10.50
2019-04-30T01:01:25.674Z,10.60
2019-04-30T01:03:59.475Z,10.50
2019-04-30T01:06:29.099Z,10.40
2019-04-30T01:09:05.409Z,10.40
2019-04-30T01:11:29.840Z,10.40
2019-04-30T01:13:59.391Z,10.30
2019-04-30T01:16:32.937Z,10.40
2019-04-30T01:19:05.712Z,10.40
2019-04-30T01:21:32.647Z,10.40
2019-04-30T01:24:02.320Z,10.40
2019-04-30T01:26:32.398Z,10.40
2019-04-30T01:29:02.382Z,10.30
2019-04-30T01:31:37.307Z,10.00
2019-04-30T01:34:05.079Z,10.20
2019-04-30T01:36:34.346Z,10.30
2019-04-30T01:39:05.348Z,10.20
2019-04-30T01:41:35.463Z,10.20
2019-04-30T01:44:08.674Z,10.10
2019-04-30T01:46:36.503Z,10.10
2019-04-30T01:49:26.685Z,9.80
2019-04-30T01:52:00.506Z,9.70
2019-04-30T01:54:29.138Z,9.60
2019-04-30T01:57:10.928Z,9.70
2019-04-30T02:00:01.963Z,9.80
2019-04-30T02:02:36.739Z,9.80
2019-04-30T02:05:08.949Z,9.80
2019-04-30T02:07:40.531Z,9.60
2019-04-30T02:10:10.703Z,9.50
2019-04-30T02:12:40.406Z,9.60
2019-04-30T02:15:10.211Z,9.70
2019-04-30T02:17:39.695Z,9.60
2019-04-30T02:20:10.971Z,9.70
2019-04-30T02:22:40.578Z,9.50
2019-04-30T02:25:10.354Z,9.40
2019-04-30T02:27:39.895Z,9.20
2019-04-30T02:30:11.333Z,9.40
2019-04-30T02:32:41.300Z,9.30
2019-04-30T02:35:12.549Z,9.40
2019-04-30T02:37:50.562Z,9.50
2019-04-30T02:40:20.212Z,9.40
2019-04-30T02:42:50.683Z,9.40
2019-04-30T02:45:20.588Z,9.50
2019-04-30T02:47:50.786Z,9.50
2019-04-30T02:50:22.577Z,9.30
2019-04-30T02:52:52.779Z,9.50
2019-04-30T02:55:25.495Z,9.40
2019-04-30T02:57:54.951Z,9.50
2019-04-30T03:00:24.519Z,9.50
2019-04-30T03:02:53.982Z,9.50
2019-04-30T03:05:23.558Z,9.50
2019-04-30T03:07:53.648Z,9.40
2019-04-30T03:10:23.481Z,9.40
2019-04-30T03:12:53.101Z,9.50
2019-04-30T03:15:23.098Z,9.60
2019-04-30T03:18:00.326Z,9.50
2019-04-30T03:20:41.463Z,9.60
2019-04-30T03:23:10.935Z,9.60
2019-04-30T03:25:40.707Z,9.60
2019-04-30T03:28:11.500Z,9.50
2019-04-30T03:30:42.384Z,9.40
2019-04-30T03:33:13.988Z,9.30
2019-04-30T03:35:47.754Z,9.30
2019-04-30T03:38:16.721Z,9.50
2019-04-30T03:40:50.129Z,9.50
2019-04-30T03:43:20.155Z,9.60
2019-04-30T03:45:50.938Z,9.60
2019-04-30T03:48:20.400Z,9.50
2019-04-30T03:50:56.420Z,9.50
2019-04-30T03:53:21.054Z,9.40
2019-04-30T03:55:50.851Z,9.30
2019-04-30T03:58:22.039Z,9.30
2019-04-30T04:01:12.518Z,9.30
2019-04-30T04:04:00.563Z,9.20
2019-04-30T04:06:35.027Z,9.20
2019-04-30T04:09:10.252Z,9.10
2019-04-30T04:11:41.150Z,9.20
2019-04-30T04:14:10.751Z,9.20
2019-04-30T04:16:41.125Z,9.20
2019-04-30T04:19:10.937Z,9.20
2019-04-30T04:21:40.403Z,9.30
2019-04-30T04:24:10.572Z,9.30
2019-04-30T04:26:43.523Z,9.30
2019-04-30T04:29:12.416Z,9.20
2019-04-30T04:31:42.368Z,9.20
2019-04-30T04:34:11.937Z,9.30
2019-04-30T04:36:43.388Z,9.30
2019-04-30T04:39:12.667Z,9.20
2019-04-30T04:41:44.201Z,9.20
2019-04-30T04:44:13.426Z,9.30
2019-04-30T04:46:42.952Z,9.40
2019-04-30T04:49:12.491Z,9.40
2019-04-30T04:51:42.480Z,9.30
2019-04-30T04:54:12.259Z,9.30
2019-04-30T04:56:42.827Z,9.20
2019-04-30T04:59:12.429Z,9.30
2019-04-30T05:01:42.072Z,9.40
2019-04-30T05:04:11.962Z,9.40
2019-04-30T05:06:41.513Z,9.30
2019-04-30T05:09:11.043Z,9.30
2019-04-30T05:11:40.579Z,9.20
2019-04-30T05:14:10.946Z,9.50
2019-04-30T05:16:40.851Z,9.50
2019-04-30T05:19:10.317Z,9.50
2019-04-30T05:21:44.538Z,9.50
2019-04-30T05:24:10.940Z,9.40
2019-04-30T05:26:40.352Z,9.40
2019-04-30T05:29:09.894Z,9.50
2019-04-30T05:31:39.531Z,9.60
2019-04-30T05:34:10.299Z,9.60
2019-04-30T05:36:40.182Z,9.90
2019-04-30T05:39:09.723Z,10.20
2019-04-30T05:41:41.122Z,10.20
2019-04-30T05:44:10.245Z,10.50
2019-04-30T05:46:39.825Z,11.70
2019-04-30T05:49:09.514Z,12.00
2019-04-30T05:51:39.154Z,11.20
2019-04-30T05:54:09.169Z,11.20
2019-04-30T05:56:39.846Z,11.10
2019-04-30T05:59:10.044Z,11.60
2019-04-30T06:01:39.646Z,11.70
2019-04-30T06:04:09.613Z,11.40
2019-04-30T06:06:39.614Z,11.60
2019-04-30T06:09:14.874Z,11.80
2019-04-30T06:11:55.510Z,12.30
2019-04-30T06:14:29.411Z,12.60
2019-04-30T06:17:15.647Z,12.20
2019-04-30T06:19:45.416Z,12.80
2019-04-30T06:22:15.499Z,13.20
2019-04-30T06:24:45.152Z,14.40
2019-04-30T06:27:15.367Z,14.20
2019-04-30T06:29:45.286Z,13.90
2019-04-30T06:32:14.946Z,13.70
2019-04-30T06:34:47.040Z,13.70
2019-04-30T06:37:19.275Z,14.10
2019-04-30T06:39:49.841Z,14.30
2019-04-30T06:42:19.526Z,14.70
2019-04-30T06:44:50.827Z,14.80
2019-04-30T06:47:32.466Z,14.80
2019-04-30T06:49:52.567Z,15.00
2019-04-30T06:52:23.675Z,14.90
2019-04-30T06:54:53.267Z,15.10
2019-04-30T06:57:22.743Z,14.60
2019-04-30T06:59:52.223Z,15.10
2019-04-30T07:02:21.796Z,15.10
2019-04-30T07:04:51.336Z,15.30
2019-04-30T07:07:23.251Z,15.50
2019-04-30T07:09:58.658Z,16.50
2019-04-30T07:12:30.539Z,15.80
2019-04-30T07:14:59.394Z,15.80
2019-04-30T07:17:29.306Z,15.70
2019-04-30T07:19:59.695Z,15.90
2019-04-30T07:22:39.940Z,16.00
2019-04-30T07:25:00.549Z,15.80
2019-04-30T07:27:32.408Z,16.20
2019-04-30T07:30:01.531Z,16.20
2019-04-30T07:32:31.306Z,16.00
2019-04-30T07:35:00.893Z,16.10
2019-04-30T07:37:30.586Z,16.20
2019-04-30T07:40:00.155Z,16.30
2019-04-30T07:42:31.372Z,16.40
2019-04-30T07:45:00.961Z,16.60
2019-04-30T07:47:30.570Z,16.60
2019-04-30T07:50:00.867Z,16.40
2019-04-30T07:52:33.877Z,16.90
2019-04-30T07:55:02.754Z,17.10
2019-04-30T07:57:32.645Z,16.70
2019-04-30T08:00:02.551Z,16.90
2019-04-30T08:02:39.534Z,17.10
2019-04-30T08:05:10.517Z,17.20
2019-04-30T08:07:39.927Z,17.20
2019-04-30T08:10:10.172Z,17.30
2019-04-30T08:13:08.516Z,17.30
2019-04-30T08:15:31.151Z,17.50
2019-04-30T08:18:05.484Z,17.40
2019-04-30T08:20:31.935Z,17.40
2019-04-30T08:23:13.385Z,17.20
2019-04-30T08:25:32.740Z,17.20
2019-04-30T08:28:02.315Z,17.50
2019-04-30T08:30:33.335Z,17.30
2019-04-30T08:33:02.907Z,17.50
2019-04-30T08:35:32.588Z,17.90
2019-04-30T08:38:02.199Z,18.30
2019-04-30T08:40:31.711Z,18.10
2019-04-30T08:43:01.303Z,18.00
2019-04-30T08:45:34.565Z,17.90
2019-04-30T08:48:02.708Z,18.10
2019-04-30T08:50:32.379Z,18.10
2019-04-30T08:53:01.891Z,17.90
2019-04-30T08:55:31.426Z,17.60
2019-04-30T08:58:09.341Z,17.50
2019-04-30T09:00:34.151Z,17.60
2019-04-30T09:03:03.760Z,17.80
2019-04-30T09:05:35.011Z,18.10
2019-04-30T09:08:06.878Z,18.40
2019-04-30T09:10:36.679Z,18.40
2019-04-30T09:13:06.439Z,18.60
2019-04-30T09:15:37.290Z,18.60
2019-04-30T09:18:10.283Z,18.50
2019-04-30T09:20:39.303Z,18.40
2019-04-30T09:23:11.311Z,18.40
2019-04-30T09:25:40.991Z,18.50
2019-04-30T09:28:10.542Z,18.20
2019-04-30T09:30:39.971Z,17.90
2019-04-30T09:33:11.190Z,17.80
2019-04-30T09:35:41.826Z,17.90
2019-04-30T09:38:11.379Z,17.80
2019-04-30T09:40:41.770Z,17.90
2019-04-30T09:43:13.142Z,17.70
2019-04-30T09:45:42.582Z,17.80
2019-04-30T09:48:12.197Z,17.80
2019-04-30T09:50:42.309Z,17.80
2019-04-30T09:53:12.146Z,18.10
2019-04-30T09:55:41.931Z,18.30
2019-04-30T09:58:16.856Z,18.20
2019-04-30T10:00:42.743Z,18.30
2019-04-30T10:03:12.687Z,18.20
2019-04-30T10:05:43.983Z,18.20
2019-04-30T10:08:14.683Z,18.20
2019-04-30T10:10:45.909Z,18.40
2019-04-30T10:13:15.464Z,18.60
2019-04-30T10:15:49.960Z,18.70
2019-04-30T10:18:17.971Z,18.60
2019-04-30T10:20:47.480Z,18.50
2019-04-30T10:23:19.321Z,18.20
2019-04-30T10:25:49.067Z,18.20
2019-04-30T10:28:19.622Z,18.50
2019-04-30T10:30:49.479Z,18.70
2019-04-30T10:33:19.603Z,18.70
2019-04-30T10:35:50.570Z,18.70
2019-04-30T10:38:21.311Z,18.80
2019-04-30T10:40:51.332Z,18.50
2019-04-30T10:43:21.025Z,18.50
2019-04-30T10:45:50.728Z,18.30
2019-04-30T10:48:20.278Z,18.50
2019-04-30T10:50:49.854Z,18.60
2019-04-30T10:53:19.473Z,18.40
2019-04-30T10:55:48.971Z,18.40
2019-04-30T10:58:18.911Z,18.50
2019-04-30T11:00:49.857Z,18.70
2019-04-30T11:03:22.950Z,18.80
2019-04-30T11:05:50.903Z,18.80
2019-04-30T11:08:20.575Z,18.60
2019-04-30T11:10:51.462Z,18.60
2019-04-30T11:13:20.966Z,18.50
2019-04-30T11:15:51.543Z,18.40
2019-04-30T11:18:21.303Z,18.50
2019-04-30T11:20:51.363Z,18.60
2019-04-30T11:23:22.391Z,18.80
2019-04-30T11:25:52.750Z,19.00
2019-04-30T11:28:24.506Z,19.20
2019-04-30T11:30:56.619Z,19.10
2019-04-30T11:33:26.492Z,19.00
2019-04-30T11:36:02.443Z,19.10
2019-04-30T11:38:30.671Z,19.00
2019-04-30T11:41:00.254Z,18.90
2019-04-30T11:43:29.855Z,19.00
2019-04-30T11:46:28.546Z,19.10
2019-04-30T11:48:58.705Z,19.30
2019-04-30T11:51:31.186Z,19.30
2019-04-30T11:54:00.691Z,19.20
2019-04-30T11:56:30.307Z,19.20
2019-04-30T11:58:59.847Z,19.30
2019-04-30T12:01:31.055Z,19.30
2019-04-30T12:04:00.675Z,19.30
2019-04-30T12:06:30.319Z,19.40
2019-04-30T12:09:01.572Z,19.70
2019-04-30T12:11:43.603Z,19.60
2019-04-30T12:14:13.210Z,19.60
2019-04-30T12:16:42.795Z,19.80
2019-04-30T12:19:12.404Z,19.90
2019-04-30T12:21:41.912Z,19.60
2019-04-30T12:24:11.527Z,19.50
2019-04-30T12:26:41.032Z,19.60
2019-04-30T12:29:11.270Z,19.60
2019-04-30T12:31:40.971Z,19.60
2019-04-30T12:34:10.515Z,19.50
2019-04-30T12:36:40.122Z,19.50
2019-04-30T12:39:09.631Z,19.60
2019-04-30T12:41:40.658Z,19.50
2019-04-30T12:44:10.347Z,19.50
2019-04-30T12:46:39.956Z,19.60
2019-04-30T12:49:11.188Z,19.60
2019-04-30T12:51:59.239Z,19.70
2019-04-30T12:54:50.666Z,19.70
2019-04-30T12:57:29.333Z,19.50
2019-04-30T13:00:00.437Z,19.50
2019-04-30T13:02:29.818Z,19.30
2019-04-30T13:05:00.533Z,19.30
2019-04-30T13:07:31.109Z,19.40
2019-04-30T13:10:02.615Z,19.70
2019-04-30T13:12:33.167Z,19.70
2019-04-30T13:15:03.040Z,19.70
2019-04-30T13:17:32.719Z,19.70
2019-04-30T13:20:02.398Z,19.70
2019-04-30T13:22:31.971Z,19.50
2019-04-30T13:25:01.450Z,19.40
2019-04-30T13:27:32.778Z,19.50
2019-04-30T13:30:08.448Z,19.40
2019-04-30T13:32:39.711Z,19.40
2019-04-30T13:35:09.416Z,19.40
2019-04-30T13:37:40.743Z,19.40
2019-04-30T13:40:14.882Z,19.40
2019-04-30T13:42:46.130Z,19.50
2019-04-30T13:45:15.886Z,19.80
2019-04-30T13:47:45.499Z,19.80
2019-04-30T13:50:15.327Z,19.60
2019-04-30T13:52:44.898Z,19.60
2019-04-30T13:55:14.511Z,19.50
2019-04-30T13:57:44.263Z,19.50
2019-04-30T14:00:23.926Z,19.40
2019-04-30T14:02:55.147Z,19.40
2019-04-30T14:05:25.136Z,19.40
2019-04-30T14:08:11.419Z,19.40
2019-04-30T14:10:42.314Z,19.50
2019-04-30T14:13:12.533Z,19.50
2019-04-30T14:15:43.518Z,19.60
2019-04-30T14:18:13.427Z,19.60
2019-04-30T14:20:42.943Z,19.60
2019-04-30T14:23:12.574Z,19.50
2019-04-30T14:25:42.219Z,19.40
2019-04-30T14:28:11.879Z,19.20
2019-04-30T14:30:41.789Z,19.10
2019-04-30T14:33:23.283Z,19.10
2019-04-30T14:35:45.675Z,19.10
2019-04-30T14:38:15.259Z,19.00
2019-04-30T14:40:45.324Z,19.00
2019-04-30T14:43:23.406Z,18.90
2019-04-30T14:46:12.102Z,19.00
2019-04-30T14:48:44.392Z,18.90
2019-04-30T14:51:14.746Z,18.90
2019-04-30T14:53:52.074Z,18.80
2019-04-30T14:56:23.259Z,18.70
2019-04-30T14:59:13.382Z,18.70
2019-04-30T15:01:44.643Z,18.70
2019-04-30T15:04:15.523Z,18.70
2019-04-30T15:06:45.257Z,18.80
2019-04-30T15:09:15.111Z,18.80
2019-04-30T15:11:44.934Z,19.00
2019-04-30T15:14:14.611Z,19.00
2019-04-30T15:16:44.201Z,19.10
2019-04-30T15:19:13.883Z,19.00
2019-04-30T15:21:43.467Z,19.10
2019-04-30T15:24:14.727Z,19.10
2019-04-30T15:26:44.442Z,19.10
2019-04-30T15:29:16.118Z,19.10
2019-04-30T15:31:45.700Z,19.10
2019-04-30T15:34:15.314Z,19.20
2019-04-30T15:36:44.754Z,19.20
2019-04-30T15:39:32.653Z,19.30
2019-04-30T15:42:02.370Z,19.30
2019-04-30T15:44:40.085Z,19.30
2019-04-30T15:47:04.824Z,19.30
2019-04-30T15:49:34.719Z,19.20
2019-04-30T15:52:04.950Z,19.20
2019-04-30T15:54:35.623Z,19.20
2019-04-30T15:57:05.609Z,19.20
2019-04-30T15:59:36.986Z,19.20
2019-04-30T16:05:10.372Z,19.20
2019-04-30T16:07:41.590Z,19.10
2019-04-30T16:10:29.007Z,19.10
2019-04-30T16:13:00.165Z,19.00
2019-04-30T16:15:29.839Z,19.00
2019-04-30T16:18:00.897Z,19.00
2019-04-30T16:20:30.605Z,18.90
2019-04-30T16:23:00.215Z,18.90
2019-04-30T16:25:30.357Z,18.90
2019-04-30T16:28:01.421Z,18.90
2019-04-30T16:30:32.126Z,18.90
2019-04-30T16:33:01.763Z,18.90
2019-04-30T16:35:32.639Z,18.80
2019-04-30T16:38:02.331Z,18.90
2019-04-30T16:40:33.016Z,18.90
2019-04-30T16:43:02.703Z,18.80
2019-04-30T16:45:33.863Z,18.80
2019-04-30T16:48:03.492Z,18.70
2019-04-30T16:50:33.075Z,18.60
2019-04-30T16:53:02.682Z,18.50
2019-04-30T16:55:33.399Z,18.50
2019-04-30T16:58:02.983Z,18.50
2019-04-30T17:00:32.667Z,18.40
2019-04-30T17:03:03.963Z,18.40
2019-04-30T17:05:45.518Z,18.40
2019-04-30T17:08:19.398Z,18.40
2019-04-30T17:10:56.247Z,18.40
2019-04-30T17:13:30.355Z,18.30
2019-04-30T17:16:04.376Z,18.30
2019-04-30T17:18:33.985Z,18.20
2019-04-30T17:21:03.605Z,18.30
2019-04-30T17:23:34.219Z,18.20
2019-04-30T17:26:03.943Z,18.20
2019-04-30T17:28:33.563Z,18.20
2019-04-30T17:31:03.287Z,18.00
2019-04-30T17:33:32.787Z,18.00
2019-04-30T17:36:02.376Z,18.00
2019-04-30T17:38:32.091Z,18.00
2019-04-30T17:41:01.685Z,17.90
2019-04-30T17:43:31.391Z,17.90
2019-04-30T17:46:00.975Z,17.80
2019-04-30T17:48:31.003Z,17.70
2019-04-30T17:51:01.180Z,17.70
2019-04-30T17:53:32.316Z,17.60
2019-04-30T17:56:02.167Z,17.60
2019-04-30T17:58:31.715Z,17.50
2019-04-30T18:01:02.975Z,17.50
2019-04-30T18:03:32.587Z,17.50
2019-04-30T18:06:02.767Z,17.40
2019-04-30T18:08:32.459Z,17.30
2019-04-30T18:11:02.046Z,17.30
2019-04-30T18:13:31.587Z,17.20
2019-04-30T18:16:01.527Z,17.10
2019-04-30T18:18:36.691Z,17.00
2019-04-30T18:21:24.098Z,16.90
2019-04-30T18:23:55.369Z,16.80
2019-04-30T18:26:25.011Z,16.70
2019-04-30T18:28:54.623Z,16.70
2019-04-30T18:31:24.603Z,16.60
2019-04-30T18:33:54.210Z,16.50
2019-04-30T18:36:23.751Z,16.50
2019-04-30T18:38:53.335Z,16.60
2019-04-30T18:41:22.947Z,16.70
2019-04-30T18:43:52.499Z,16.60
2019-04-30T18:46:22.252Z,16.60
2019-04-30T18:48:52.861Z,16.60
2019-04-30T18:51:33.647Z,16.60
2019-04-30T18:53:55.546Z,16.40
2019-04-30T18:56:25.095Z,16.40
2019-04-30T18:58:54.779Z,16.40
2019-04-30T19:01:24.451Z,16.50
2019-04-30T19:03:54.067Z,16.50
2019-04-30T19:06:26.277Z,16.40
2019-04-30T19:09:14.243Z,16.30
2019-04-30T19:12:00.767Z,16.30
2019-04-30T19:14:34.770Z,16.30
2019-04-30T19:17:09.559Z,16.20
2019-04-30T19:19:46.823Z,16.20
2019-04-30T19:22:16.403Z,16.10
2019-04-30T19:24:55.682Z,16.10
2019-04-30T19:27:18.624Z,16.00
2019-04-30T19:29:49.065Z,16.00
2019-04-30T19:32:19.735Z,16.10
2019-04-30T19:34:49.348Z,16.10
2019-04-30T19:37:19.668Z,16.10
2019-04-30T19:39:51.187Z,16.00
2019-04-30T19:42:20.894Z,16.00
2019-04-30T19:44:56.810Z,16.00
2019-04-30T19:47:21.679Z,16.00
2019-04-30T19:49:51.448Z,15.90
2019-04-30T19:52:21.220Z,15.80
2019-04-30T19:54:50.799Z,15.80
2019-04-30T19:57:20.355Z,15.90
2019-04-30T19:59:50.006Z,15.80
2019-04-30T20:02:21.824Z,15.80
2019-04-30T20:04:50.928Z,15.70
2019-04-30T20:07:20.435Z,15.50
2019-04-30T20:10:00.617Z,15.70
2019-04-30T20:12:21.147Z,15.70
2019-04-30T20:14:50.741Z,15.70
2019-04-30T20:17:21.747Z,15.80
2019-04-30T20:19:51.424Z,15.70
2019-04-30T20:22:21.212Z,15.70
2019-04-30T20:24:51.164Z,15.60
2019-04-30T20:27:20.713Z,15.50
2019-04-30T20:29:51.859Z,15.50
2019-04-30T20:32:33.943Z,15.40
2019-04-30T20:34:54.132Z,15.40
2019-04-30T20:37:23.636Z,15.30
2019-04-30T20:39:54.838Z,15.30
2019-04-30T20:42:24.487Z,15.30
2019-04-30T20:44:53.995Z,15.40
2019-04-30T20:47:23.612Z,15.30
2019-04-30T20:49:53.127Z,15.40
2019-04-30T20:52:23.986Z,15.40
2019-04-30T20:54:53.656Z,15.40
2019-04-30T20:57:23.164Z,15.30
2019-04-30T20:59:53.043Z,15.20
2019-04-30T21:02:22.658Z,15.20
2019-04-30T21:04:52.367Z,15.30
2019-04-30T21:07:22.054Z,15.30
2019-04-30T21:09:51.487Z,15.20
2019-04-30T21:12:21.110Z,15.10
2019-04-30T21:14:50.708Z,15.20
2019-04-30T21:17:20.498Z,15.10
2019-04-30T21:19:50.010Z,15.20
2019-04-30T21:22:22.710Z,15.20
2019-04-30T21:24:50.734Z,15.20
2019-04-30T21:27:20.461Z,15.20
2019-04-30T21:29:50.039Z,15.20
2019-04-30T21:32:26.742Z,15.10
2019-04-30T21:34:58.070Z,15.20
2019-04-30T21:37:27.722Z,15.20
2019-04-30T21:39:58.594Z,15.20
2019-04-30T21:42:28.356Z,15.20
2019-04-30T21:44:57.972Z,15.20
2019-04-30T21:47:27.412Z,15.20
2019-04-30T21:49:57.222Z,15.20
2019-04-30T21:52:26.659Z,15.20
2019-04-30T21:54:56.216Z,15.00
2019-04-30T21:57:25.747Z,15.10
2019-04-30T21:59:55.288Z,15.10
2019-04-30T22:02:25.099Z,15.00
2019-04-30T22:04:55.803Z,15.00
2019-04-30T22:07:25.415Z,15.00
2019-04-30T22:09:55.062Z,15.00
2019-04-30T22:12:24.725Z,15.00
2019-04-30T22:14:54.401Z,15.10
2019-04-30T22:17:25.123Z,15.10
2019-04-30T22:19:54.762Z,15.00
2019-04-30T22:22:24.227Z,15.00
2019-04-30T22:24:53.802Z,14.90
2019-04-30T22:27:23.280Z,14.80
2019-04-30T22:29:52.840Z,14.80
2019-04-30T22:32:22.372Z,14.80
2019-04-30T22:35:28.261Z,14.80
2019-04-30T22:38:02.306Z,14.80
2019-04-30T22:40:31.920Z,14.70
2019-04-30T22:43:01.358Z,14.70
2019-04-30T22:45:43.920Z,14.70
2019-04-30T22:48:13.567Z,14.70
2019-04-30T22:50:43.111Z,14.60
2019-04-30T22:53:12.627Z,14.60
2019-04-30T22:55:42.175Z,14.60
2019-04-30T22:58:11.687Z,14.60
2019-04-30T23:00:45.362Z,14.50
2019-04-30T23:03:16.575Z,14.50
2019-04-30T23:05:47.343Z,14.50
2019-04-30T23:08:16.920Z,14.50
2019-04-30T23:10:46.527Z,14.50
2019-04-30T23:13:16.402Z,14.40
2019-04-30T23:15:46.016Z,14.40
2019-04-30T23:18:15.690Z,14.40
2019-04-30T23:20:45.274Z,14.30
2019-04-30T23:23:15.315Z,14.30
2019-04-30T23:25:44.819Z,14.30
2019-04-30T23:28:14.427Z,14.30
2019-04-30T23:30:44.000Z,14.30
2019-04-30T23:33:13.623Z,14.30
2019-04-30T23:35:43.192Z,14.20
2019-04-30T23:38:12.815Z,14.10
2019-04-30T23:40:51.062Z,14.10
2019-04-30T23:43:21.473Z,14.10
2019-04-30T23:45:51.079Z,14.00
2019-04-30T23:48:20.687Z,14.10
2019-04-30T23:50:50.230Z,14.10
2019-04-30T23:53:19.768Z,14.00
2019-04-30T23:55:49.243Z,14.00
2019-04-30T23:58:18.774Z,13.90
